Time;durP1;ratioP1;P1;durP2;ratioP2;P2;SDS_P1;SDS_P2;PMS_P1;PMS_P2;Temp;Humidity;BMP_temperature;BMP_pressure;BME280_temperature;BME280_humidity;BME280_pressure;Samples;Min_cycle;Max_cycle;Signal;HPM_P1;HPM_P2
2024/01/29 00:04:51;;;;;;;10.20;6.90;;;23.80;51.70;;;;;;225744;1255;22604;-53
2024/01/29 00:09:56;;;;;;;10.90;6.70;;;24.00;51.20;;;;;;222028;1267;24222;-50
2024/01/29 00:15:02;;;;;;;9.30;6.30;;;23.60;51.80;;;;;;221877;1269;24455;-50
2024/01/29 00:20:07;;;;;;;11.80;5.90;;;23.40;52.60;;;;;;221977;1269;22517;-51
2024/01/29 00:25:12;;;;;;;10.30;6.20;;;23.50;52.60;;;;;;221840;1263;22543;-51
2024/01/29 00:30:17;;;;;;;10.00;6.90;;;23.40;52.10;;;;;;222248;1257;25333;-52
2024/01/29 00:35:22;;;;;;;8.50;6.30;;;23.40;52.40;;;;;;221769;1265;22553;-52
2024/01/29 00:40:27;;;;;;;9.40;6.20;;;23.30;52.00;;;;;;221884;1255;24221;-51
2024/01/29 00:45:32;;;;;;;8.60;6.30;;;23.10;52.20;;;;;;221874;1267;22576;-49
2024/01/29 00:50:36;;;;;;;8.00;5.80;;;23.00;52.90;;;;;;221968;1258;24236;-49
2024/01/29 00:55:43;;;;;;;8.40;6.00;;;23.10;52.60;;;;;;222425;1270;23062;-52
2024/01/29 01:00:48;;;;;;;8.70;6.00;;;23.20;52.60;;;;;;221968;1269;22605;-51
2024/01/29 01:05:52;;;;;;;8.50;5.80;;;23.00;52.80;;;;;;222052;1262;22539;-50
2024/01/29 01:10:56;;;;;;;7.40;5.90;;;23.10;53.10;;;;;;222175;1256;24188;-52
2024/01/29 01:16:01;;;;;;;8.10;6.40;;;23.40;52.20;;;;;;221713;1266;24172;-51
2024/01/29 01:21:05;;;;;;;7.70;6.00;;;23.50;51.80;;;;;;222042;1257;22957;-52
2024/01/29 01:26:09;;;;;;;7.00;5.90;;;23.60;51.90;;;;;;221910;1268;22626;-50
2024/01/29 01:31:14;;;;;;;7.30;6.20;;;23.60;51.40;;;;;;221849;1268;22517;-51
2024/01/29 01:36:19;;;;;;;7.50;5.80;;;23.70;51.30;;;;;;221823;1266;22546;-50
2024/01/29 01:41:23;;;;;;;8.30;5.90;;;23.70;51.40;;;;;;222160;1257;25338;-54
2024/01/29 01:46:28;;;;;;;6.80;5.70;;;23.70;51.40;;;;;;222022;1257;25614;-50
2024/01/29 01:51:33;;;;;;;9.00;6.30;;;23.60;51.60;;;;;;222255;1259;24146;-51
2024/01/29 01:56:39;;;;;;;7.80;5.80;;;23.40;52.00;;;;;;220510;1265;22643;-53
2024/01/29 02:01:45;;;;;;;9.00;5.90;;;23.40;52.30;;;;;;220493;1276;22574;-50
2024/01/29 02:06:51;;;;;;;8.80;5.60;;;23.30;52.10;;;;;;220699;1265;25341;-48
2024/01/29 02:11:56;;;;;;;8.60;5.50;;;23.30;51.70;;;;;;220983;1269;22520;-52
2024/01/29 02:17:00;;;;;;;9.30;5.70;;;23.10;51.90;;;;;;221810;1259;24173;-51
2024/01/29 02:22:04;;;;;;;8.00;6.20;;;23.00;51.80;;;;;;222140;1264;25493;-51
2024/01/29 02:27:08;;;;;;;7.90;6.00;;;23.10;51.50;;;;;;222185;1266;22514;-52
2024/01/29 02:32:14;;;;;;;6.60;5.70;;;23.00;52.30;;;;;;222308;1263;24343;-52
2024/01/29 02:37:19;;;;;;;8.30;5.40;;;22.90;51.80;;;;;;222377;1259;22980;-51
2024/01/29 02:42:23;;;;;;;6.80;5.00;;;23.10;51.90;;;;;;222206;1259;22572;-51
2024/01/29 02:47:27;;;;;;;7.80;5.50;;;23.30;51.40;;;;;;222234;1263;22518;-52
2024/01/29 02:52:31;;;;;;;6.30;5.30;;;23.50;51.30;;;;;;222016;1267;24193;-51
2024/01/29 02:57:36;;;;;;;8.90;5.80;;;23.50;50.70;;;;;;221952;1263;22542;-52
2024/01/29 03:02:40;;;;;;;7.80;5.70;;;23.50;50.70;;;;;;221917;1266;22571;-52
2024/01/29 03:07:45;;;;;;;6.50;5.40;;;23.60;50.50;;;;;;222399;1263;22824;-51
2024/01/29 03:12:49;;;;;;;8.10;5.20;;;23.70;50.30;;;;;;221021;1265;24203;-49
2024/01/29 03:17:54;;;;;;;7.10;5.70;;;23.60;50.40;;;;;;221085;1272;24459;-49
2024/01/29 03:22:59;;;;;;;8.60;5.50;;;23.50;50.50;;;;;;221227;1272;23441;-51
2024/01/29 03:28:04;;;;;;;5.80;5.10;;;23.50;50.20;;;;;;221179;1269;25140;-54
2024/01/29 03:33:08;;;;;;;7.40;5.60;;;23.40;50.40;;;;;;222207;1266;23910;-50
2024/01/29 03:38:12;;;;;;;7.30;5.70;;;23.30;50.80;;;;;;221996;1264;24225;-51
2024/01/29 03:43:17;;;;;;;7.10;6.30;;;23.20;51.60;;;;;;222290;1268;24202;-51
2024/01/29 03:48:21;;;;;;;8.60;5.30;;;23.10;50.70;;;;;;222319;1262;25363;-49
2024/01/29 03:53:25;;;;;;;6.80;5.10;;;23.10;50.80;;;;;;222334;1257;23064;-50
2024/01/29 03:58:30;;;;;;;7.00;5.60;;;23.20;50.90;;;;;;222213;1266;24202;-51
2024/01/29 04:03:34;;;;;;;7.00;5.60;;;23.00;51.00;;;;;;222174;1261;24253;-50
2024/01/29 04:08:38;;;;;;;6.70;5.30;;;23.00;51.20;;;;;;222085;1259;22538;-52
2024/01/29 04:13:43;;;;;;;7.90;5.60;;;23.10;50.80;;;;;;221978;1263;22779;-53
2024/01/29 04:18:47;;;;;;;6.50;5.70;;;23.30;51.00;;;;;;221824;1266;22522;-53
2024/01/29 04:23:52;;;;;;;7.30;5.70;;;23.40;50.40;;;;;;222160;1264;22517;-52
2024/01/29 04:28:57;;;;;;;7.90;6.50;;;23.60;50.00;;;;;;222041;1269;22680;-53
2024/01/29 04:34:02;;;;;;;7.30;5.70;;;23.50;50.40;;;;;;222225;1263;22737;-50
2024/01/29 04:39:07;;;;;;;6.70;5.70;;;23.60;50.00;;;;;;222152;1266;22783;-53
2024/01/29 04:44:11;;;;;;;6.40;5.80;;;23.60;49.70;;;;;;222003;1264;24260;-51
2024/01/29 04:49:16;;;;;;;7.50;6.30;;;23.60;49.70;;;;;;222358;1266;22515;-51
2024/01/29 04:54:21;;;;;;;6.50;5.50;;;23.60;49.80;;;;;;222010;1256;22652;-52
2024/01/29 04:59:26;;;;;;;6.00;4.90;;;23.40;49.90;;;;;;222151;1266;24150;-52
2024/01/29 05:04:30;;;;;;;7.40;5.40;;;23.30;50.30;;;;;;222048;1266;24121;-53
2024/01/29 05:09:35;;;;;;;8.90;6.10;;;23.40;50.00;;;;;;222105;1269;23300;-51
2024/01/29 05:14:40;;;;;;;7.40;6.70;;;23.20;50.10;;;;;;222222;1259;22589;-52
2024/01/29 05:19:45;;;;;;;6.70;6.10;;;23.10;50.60;;;;;;221840;1254;24193;-49
2024/01/29 05:24:50;;;;;;;9.40;6.30;;;23.10;51.00;;;;;;221829;1266;630861;-52
2024/01/29 05:29:54;;;;;;;7.40;5.90;;;23.00;50.60;;;;;;222303;1266;24170;-49
2024/01/29 05:35:01;;;;;;;7.40;5.80;;;22.90;51.00;;;;;;222227;1269;22600;-47
2024/01/29 05:40:07;;;;;;;8.60;6.00;;;22.90;50.60;;;;;;222201;1254;23349;-48
2024/01/29 05:45:12;;;;;;;8.20;6.00;;;22.60;50.90;;;;;;222202;1260;22528;-51
2024/01/29 05:50:16;;;;;;;6.80;5.80;;;22.70;51.40;;;;;;222223;1269;25232;-48
2024/01/29 05:55:21;;;;;;;7.70;6.30;;;22.70;51.30;;;;;;222090;1266;22705;-54
2024/01/29 06:00:25;;;;;;;8.10;6.00;;;22.80;50.50;;;;;;223949;1268;25399;-48
2024/01/29 06:05:30;;;;;;;6.60;5.90;;;23.00;50.70;;;;;;223294;1262;22594;-49
2024/01/29 06:10:35;;;;;;;6.20;5.30;;;23.10;50.80;;;;;;221872;1262;22558;-52
2024/01/29 06:15:39;;;;;;;6.90;6.10;;;23.10;50.60;;;;;;222784;1257;24327;-52
2024/01/29 06:20:44;;;;;;;9.40;6.70;;;23.20;50.10;;;;;;225107;1269;23925;-52
2024/01/29 06:25:49;;;;;;;6.90;6.10;;;23.50;49.80;;;;;;222129;1264;24197;-53
2024/01/29 06:30:54;;;;;;;6.60;5.90;;;23.30;50.30;;;;;;221953;1248;22783;-52
2024/01/29 06:35:59;;;;;;;8.80;6.50;;;23.10;51.00;;;;;;222024;1261;23889;-53
2024/01/29 06:41:04;;;;;;;9.40;6.40;;;22.80;50.80;;;;;;222129;1268;22537;-55
2024/01/29 06:46:09;;;;;;;8.60;6.50;;;22.80;51.70;;;;;;221538;1255;22529;-53
2024/01/29 06:51:15;;;;;;;10.80;6.70;;;22.80;51.80;;;;;;221387;1255;25391;-54
2024/01/29 06:56:20;;;;;;;7.90;6.30;;;22.70;51.80;;;;;;221783;1269;22539;-53
2024/01/29 07:01:26;;;;;;;11.00;6.40;;;22.70;51.80;;;;;;222184;1268;25507;-53
2024/01/29 07:06:31;;;;;;;13.40;6.10;;;22.70;52.10;;;;;;222172;1249;24268;-55
2024/01/29 07:11:36;;;;;;;7.80;5.90;;;22.70;52.00;;;;;;222089;1269;22708;-52
2024/01/29 07:16:40;;;;;;;8.60;5.60;;;22.50;52.40;;;;;;222195;1263;22765;-51
2024/01/29 07:21:45;;;;;;;9.80;5.90;;;22.60;51.90;;;;;;222777;1264;24230;-54
2024/01/29 07:26:50;;;;;;;10.40;6.00;;;22.70;51.80;;;;;;222067;1263;22548;-54
2024/01/29 07:31:54;;;;;;;19.70;6.50;;;22.80;52.10;;;;;;222303;1264;24195;-52
2024/01/29 07:37:01;;;;;;;12.90;6.20;;;23.10;51.70;;;;;;221669;1256;23724;-50
2024/01/29 07:42:06;;;;;;;7.70;6.20;;;23.20;51.70;;;;;;221678;1262;24598;-53
2024/01/29 07:47:11;;;;;;;8.80;6.50;;;23.30;51.20;;;;;;221847;1266;25999;-54
2024/01/29 07:52:17;;;;;;;10.40;6.70;;;23.10;51.30;;;;;;221035;1270;24613;-52
2024/01/29 07:57:21;;;;;;;12.20;6.40;;;23.10;51.70;;;;;;220744;1257;24174;-52
2024/01/29 08:02:26;;;;;;;11.20;7.70;;;23.10;51.50;;;;;;220774;1275;24199;-53
2024/01/29 08:07:31;;;;;;;10.20;6.80;;;23.00;51.60;;;;;;220861;1270;22674;-54
2024/01/29 08:12:35;;;;;;;10.20;6.70;;;22.90;51.40;;;;;;229528;1267;22358;-53
2024/01/29 08:17:40;;;;;;;10.80;6.90;;;23.00;50.80;;;;;;223568;1275;22534;-51
2024/01/29 08:22:45;;;;;;;9.00;7.30;;;23.00;51.10;;;;;;222552;1265;25702;-57
2024/01/29 08:27:50;;;;;;;10.80;7.90;;;22.80;50.70;;;;;;220605;1276;24413;-57
2024/01/29 08:32:55;;;;;;;10.30;7.90;;;22.80;50.10;;;;;;220624;1270;22523;-55
2024/01/29 08:37:59;;;;;;;8.90;7.90;;;22.70;50.10;;;;;;221752;1270;22699;-55
2024/01/29 08:43:08;;;;;;;11.10;8.10;;;22.60;50.30;;;;;;221870;1269;25290;-55
2024/01/29 08:48:13;;;;;;;10.40;7.60;;;22.60;50.50;;;;;;221644;1264;22521;-54
2024/01/29 08:53:18;;;;;;;9.70;7.60;;;22.60;50.60;;;;;;221773;1247;25483;-55
2024/01/29 08:58:22;;;;;;;10.80;7.80;;;22.60;50.20;;;;;;220988;1272;25625;-56
2024/01/29 09:03:29;;;;;;;11.90;8.30;;;22.60;50.30;;;;;;221171;1273;22665;-58
2024/01/29 09:08:34;;;;;;;15.80;8.50;;;22.50;51.30;;;;;;221070;1274;22531;-53
2024/01/29 09:13:38;;;;;;;12.60;7.40;;;22.50;52.50;;;;;;221071;1260;24220;-57
2024/01/29 09:18:42;;;;;;;14.20;8.70;;;22.50;54.30;;;;;;221822;1267;24199;-56
2024/01/29 09:23:47;;;;;;;11.00;8.20;;;22.60;54.40;;;;;;222023;1257;22533;-56
2024/01/29 09:28:51;;;;;;;11.50;7.60;;;22.50;53.80;;;;;;221877;1268;25033;-56
2024/01/29 09:33:56;;;;;;;13.90;8.10;;;22.50;53.40;;;;;;221670;1257;22689;-56
2024/01/29 09:39:01;;;;;;;12.00;7.80;;;22.50;53.40;;;;;;221904;1261;24165;-56
2024/01/29 09:44:07;;;;;;;10.50;7.70;;;22.50;52.80;;;;;;222079;1267;22590;-52
2024/01/29 09:49:11;;;;;;;13.90;8.10;;;22.60;52.50;;;;;;222076;1264;25102;-56
2024/01/29 09:54:17;;;;;;;34.10;12.20;;;22.90;51.90;;;;;;222017;1269;26207;-53
2024/01/29 09:59:22;;;;;;;11.10;7.80;;;23.00;51.70;;;;;;222106;1269;23352;-54
2024/01/29 10:04:27;;;;;;;10.40;7.70;;;23.10;51.30;;;;;;222053;1267;22564;-56
2024/01/29 10:09:31;;;;;;;10.70;7.80;;;23.10;50.90;;;;;;222044;1265;24024;-56
2024/01/29 10:14:37;;;;;;;10.00;7.70;;;23.20;50.60;;;;;;221967;1267;23890;-55
2024/01/29 10:19:44;;;;;;;11.00;7.50;;;23.30;50.40;;;;;;221847;1262;24293;-54
2024/01/29 10:25:04;;;;;;;11.70;7.90;;;23.30;50.40;;;;;;221862;1270;22532;-54
2024/01/29 10:30:10;;;;;;;13.20;7.60;;;23.30;50.40;;;;;;221698;1255;22672;-56
2024/01/29 10:35:17;;;;;;;9.90;8.40;;;23.40;49.60;;;;;;221733;1267;24225;-55
2024/01/29 10:40:23;;;;;;;11.70;7.50;;;23.40;49.80;;;;;;221983;1262;25293;-55
2024/01/29 10:45:28;;;;;;;11.00;7.30;;;23.50;50.40;;;;;;221608;1251;22547;-55
2024/01/29 10:50:34;;;;;;;9.50;7.00;;;23.50;50.60;;;;;;221846;1263;22527;-57
2024/01/29 10:55:39;;;;;;;8.90;6.90;;;23.50;50.80;;;;;;222194;1264;22539;-57
2024/01/29 11:00:46;;;;;;;7.20;6.40;;;23.40;50.60;;;;;;221599;1254;23873;-56
2024/01/29 11:05:58;;;;;;;7.60;6.30;;;23.40;50.70;;;;;;221625;1267;24230;-56
2024/01/29 11:11:04;;;;;;;7.70;6.40;;;23.50;50.40;;;;;;221811;1264;25283;-56
2024/01/29 11:16:10;;;;;;;8.50;7.10;;;23.50;50.20;;;;;;221774;1264;25281;-56
2024/01/29 11:21:15;;;;;;;8.30;6.90;;;23.50;50.60;;;;;;222025;1252;24228;-56
2024/01/29 11:26:23;;;;;;;7.70;6.90;;;23.40;50.10;;;;;;221990;1267;24172;-56
2024/01/29 11:31:45;;;;;;;7.70;6.60;;;23.50;50.00;;;;;;221864;1254;22524;-55
2024/01/29 11:36:59;;;;;;;9.40;6.30;;;23.40;50.00;;;;;;222103;1264;22531;-56
2024/01/29 11:42:03;;;;;;;8.10;6.30;;;23.40;49.90;;;;;;221721;1270;22548;-57
2024/01/29 11:47:08;;;;;;;9.10;6.80;;;23.40;49.90;;;;;;222050;1265;24255;-55
2024/01/29 11:52:14;;;;;;;10.30;6.30;;;23.40;49.80;;;;;;221962;1269;22774;-56
2024/01/29 11:57:19;;;;;;;9.50;7.00;;;23.40;49.80;;;;;;222099;1264;22557;-55
2024/01/29 12:02:25;;;;;;;9.10;7.30;;;23.40;50.10;;;;;;221962;1269;24239;-56
2024/01/29 12:07:30;;;;;;;7.50;6.40;;;23.40;49.70;;;;;;221793;1270;24205;-53
2024/01/29 12:12:34;;;;;;;9.20;6.20;;;23.40;49.60;;;;;;221901;1269;22523;-55
2024/01/29 12:17:44;;;;;;;7.30;6.30;;;23.40;49.50;;;;;;222285;1263;22577;-55
2024/01/29 12:22:49;;;;;;;8.10;6.00;;;23.50;49.30;;;;;;221891;1263;24265;-54
2024/01/29 12:28:02;;;;;;;11.40;6.20;;;23.50;49.10;;;;;;222187;1249;24199;-56
2024/01/29 12:33:07;;;;;;;7.80;6.30;;;23.50;49.00;;;;;;221954;1263;24087;-56
2024/01/29 12:38:13;;;;;;;7.90;6.20;;;23.50;48.80;;;;;;221920;1257;22588;-56
2024/01/29 12:43:26;;;;;;;7.70;6.30;;;23.50;48.70;;;;;;222268;1262;22531;-62
2024/01/29 12:48:31;;;;;;;9.40;6.00;;;23.60;48.50;;;;;;222144;1267;22599;-56
2024/01/29 12:53:35;;;;;;;7.40;6.00;;;23.50;48.30;;;;;;222014;1269;24172;-57
2024/01/29 12:58:40;;;;;;;8.00;5.90;;;23.50;47.60;;;;;;222117;1246;24229;-57
2024/01/29 13:03:45;;;;;;;8.90;6.10;;;23.60;47.80;;;;;;221984;1256;22626;-56
2024/01/29 13:08:50;;;;;;;6.30;5.70;;;23.60;47.80;;;;;;221901;1267;24277;-56
2024/01/29 13:13:55;;;;;;;7.20;5.90;;;23.60;47.80;;;;;;222022;1258;24146;-55
2024/01/29 13:19:01;;;;;;;5.30;4.80;;;23.60;47.80;;;;;;222064;1255;22870;-57
2024/01/29 13:24:06;;;;;;;7.70;5.70;;;23.60;47.80;;;;;;222103;1251;22575;-56
2024/01/29 13:29:10;;;;;;;6.30;4.90;;;23.50;47.80;;;;;;222089;1269;24221;-52
2024/01/29 13:34:19;;;;;;;7.80;5.70;;;23.50;47.80;;;;;;222022;1263;22534;-55
2024/01/29 13:39:24;;;;;;;6.60;5.40;;;23.50;48.10;;;;;;222073;1262;22645;-55
2024/01/29 13:44:29;;;;;;;7.60;5.70;;;23.50;47.80;;;;;;222157;1267;22549;-56
2024/01/29 13:49:33;;;;;;;8.50;5.30;;;23.60;48.00;;;;;;221691;1270;24276;-55
2024/01/29 13:54:40;;;;;;;5.60;5.00;;;23.60;47.60;;;;;;221965;1266;22632;-54
2024/01/29 13:59:45;;;;;;;5.80;5.20;;;23.40;48.10;;;;;;221820;1269;23151;-55
2024/01/29 14:04:49;;;;;;;6.00;5.40;;;23.50;47.40;;;;;;221848;1264;23549;-54
2024/01/29 14:09:54;;;;;;;5.50;5.00;;;23.40;47.40;;;;;;222770;1259;22522;-53
2024/01/29 14:15:03;;;;;;;6.30;4.70;;;23.40;47.40;;;;;;221777;1269;22548;-56
2024/01/29 14:20:09;;;;;;;6.20;5.30;;;23.30;47.60;;;;;;222538;1267;24387;-55
2024/01/29 14:25:14;;;;;;;6.80;5.70;;;23.20;47.60;;;;;;221940;1246;23923;-55
2024/01/29 14:30:19;;;;;;;6.60;5.30;;;23.20;47.60;;;;;;221878;1256;22552;-54
2024/01/29 14:35:24;;;;;;;6.70;5.30;;;23.10;47.80;;;;;;222188;1256;24199;-52
2024/01/29 14:40:28;;;;;;;6.30;5.10;;;23.10;47.50;;;;;;222025;1267;22524;-53
2024/01/29 14:45:33;;;;;;;5.00;4.40;;;23.00;47.60;;;;;;222037;1255;22564;-55
2024/01/29 14:50:38;;;;;;;4.60;4.20;;;22.90;47.60;;;;;;221860;1268;24222;-53
2024/01/29 14:55:44;;;;;;;11.70;5.40;;;22.80;47.70;;;;;;221850;1263;23686;-55
2024/01/29 15:00:49;;;;;;;7.10;4.80;;;22.80;47.40;;;;;;221574;1254;25298;-53
2024/01/29 15:06:02;;;;;;;8.40;5.40;;;22.90;47.50;;;;;;221785;1267;22605;-53
2024/01/29 15:11:09;;;;;;;8.00;5.00;;;22.80;47.70;;;;;;221774;1265;22905;-51
2024/01/29 15:16:14;;;;;;;6.60;4.40;;;23.00;48.10;;;;;;222183;1266;24229;-52
2024/01/29 15:21:18;;;;;;;7.50;5.20;;;22.90;47.70;;;;;;222489;1257;23128;-52
2024/01/29 15:26:23;;;;;;;8.80;4.90;;;23.00;47.00;;;;;;221936;1257;25254;-50
2024/01/29 15:31:30;;;;;;;8.10;5.70;;;23.20;47.20;;;;;;221908;1247;22606;-53
2024/01/29 15:36:35;;;;;;;12.80;5.20;;;23.30;47.20;;;;;;221741;1269;26245;-54
2024/01/29 15:41:40;;;;;;;8.90;5.70;;;23.30;46.80;;;;;;222055;1250;22888;-51
2024/01/29 15:46:46;;;;;;;8.70;5.40;;;23.20;47.70;;;;;;221973;1263;25281;-54
2024/01/29 15:51:51;;;;;;;6.70;4.70;;;23.20;47.30;;;;;;222014;1263;22542;-51
2024/01/29 15:56:56;;;;;;;7.70;5.60;;;23.20;47.70;;;;;;224532;1259;22649;-54
2024/01/29 16:02:10;;;;;;;6.70;4.90;;;23.20;47.60;;;;;;222307;1266;22527;-49
2024/01/29 16:07:15;;;;;;;7.80;4.80;;;23.10;48.00;;;;;;222348;1266;23016;-53
2024/01/29 16:12:21;;;;;;;7.30;4.60;;;23.10;48.00;;;;;;222570;1256;22576;-50
2024/01/29 16:17:26;;;;;;;7.80;5.10;;;23.00;48.40;;;;;;221784;1260;24221;-52
2024/01/29 16:22:30;;;;;;;10.20;5.00;;;23.00;47.80;;;;;;221854;1249;24374;-54
2024/01/29 16:27:35;;;;;;;6.40;5.00;;;22.90;48.90;;;;;;221703;1266;24190;-51
2024/01/29 16:32:39;;;;;;;9.20;4.70;;;22.80;48.80;;;;;;221888;1263;24333;-48
2024/01/29 16:37:44;;;;;;;11.60;5.00;;;22.80;48.70;;;;;;225011;1265;25829;-52
2024/01/29 16:42:48;;;;;;;7.80;5.20;;;22.90;48.70;;;;;;221656;1263;22758;-50
2024/01/29 16:47:52;;;;;;;8.00;5.00;;;22.90;48.30;;;;;;221765;1262;22534;-50
2024/01/29 16:52:57;;;;;;;9.60;5.60;;;22.80;49.30;;;;;;221743;1263;25236;-51
2024/01/29 16:58:01;;;;;;;8.10;5.40;;;22.70;48.70;;;;;;221973;1263;22521;-49
2024/01/29 17:03:06;;;;;;;9.70;6.20;;;22.70;49.20;;;;;;221927;1263;22575;-51
2024/01/29 17:08:14;;;;;;;8.50;5.90;;;22.80;50.40;;;;;;221755;1249;22518;-52
2024/01/29 17:13:19;;;;;;;10.30;5.00;;;23.10;49.00;;;;;;221939;1268;23012;-54
2024/01/29 17:18:25;;;;;;;7.70;5.20;;;23.40;48.70;;;;;;221751;1259;24221;-57
2024/01/29 17:23:29;;;;;;;10.40;5.60;;;23.50;48.40;;;;;;222223;1265;24244;-50
2024/01/29 17:28:34;;;;;;;11.70;5.40;;;23.50;48.20;;;;;;221827;1266;377914;-52
2024/01/29 17:33:38;;;;;;;9.10;5.80;;;23.50;47.70;;;;;;222121;1259;24194;-48
2024/01/29 17:38:42;;;;;;;8.00;5.90;;;23.40;48.10;;;;;;221946;1254;22918;-51
2024/01/29 17:43:47;;;;;;;8.60;5.90;;;23.60;47.70;;;;;;222528;1252;24193;-52
2024/01/29 17:48:52;;;;;;;10.10;6.00;;;23.70;47.40;;;;;;221732;1263;23928;-53
2024/01/29 17:53:57;;;;;;;7.60;5.70;;;23.70;46.90;;;;;;222236;1263;23029;-51
2024/01/29 17:59:02;;;;;;;7.70;5.90;;;23.70;46.90;;;;;;221980;1254;24212;-52
2024/01/29 18:04:06;;;;;;;8.20;5.60;;;23.50;47.00;;;;;;221968;1269;26507;-52
2024/01/29 18:09:11;;;;;;;8.20;5.80;;;23.20;47.60;;;;;;221813;1263;24998;-54
2024/01/29 18:14:16;;;;;;;12.00;6.10;;;23.00;47.80;;;;;;223353;1259;24206;-49
2024/01/29 18:19:20;;;;;;;8.50;6.10;;;22.90;48.00;;;;;;221926;1257;22642;-49
2024/01/29 18:24:25;;;;;;;11.10;6.00;;;23.10;48.10;;;;;;222324;1263;24765;-55
2024/01/29 18:29:31;;;;;;;10.70;6.30;;;23.00;47.60;;;;;;221630;1263;23918;-51
2024/01/29 18:34:37;;;;;;;10.60;6.40;;;22.90;47.90;;;;;;222124;1254;24047;-52
2024/01/29 18:39:42;;;;;;;18.30;7.00;;;22.80;47.70;;;;;;221645;1263;22619;-52
2024/01/29 18:44:50;;;;;;;9.50;6.80;;;22.80;48.10;;;;;;221822;1263;25415;-53
2024/01/29 18:49:54;;;;;;;12.90;6.80;;;22.80;48.50;;;;;;221830;1263;22533;-53
2024/01/29 18:55:00;;;;;;;12.50;7.00;;;22.80;48.20;;;;;;221659;1267;22543;-55
2024/01/29 19:00:06;;;;;;;12.30;7.40;;;23.00;48.30;;;;;;222044;1257;22526;-55
2024/01/29 19:05:12;;;;;;;13.80;7.10;;;22.90;47.90;;;;;;221810;1266;23149;-52
2024/01/29 19:10:18;;;;;;;13.70;7.40;;;22.90;50.00;;;;;;221573;1256;22586;-52
2024/01/29 19:15:24;;;;;;;12.60;7.50;;;22.90;50.00;;;;;;222148;1263;22646;-50
2024/01/29 19:20:29;;;;;;;14.40;7.50;;;22.80;50.30;;;;;;224331;1263;25499;-53
2024/01/29 19:25:38;;;;;;;13.80;7.80;;;22.80;49.70;;;;;;222022;1263;24183;-52
2024/01/29 19:30:45;;;;;;;14.20;7.80;;;22.80;49.90;;;;;;222097;1252;25313;-51
2024/01/29 19:35:52;;;;;;;14.50;7.80;;;22.80;50.20;;;;;;222057;1264;22520;-53
2024/01/29 19:40:59;;;;;;;11.00;7.20;;;22.80;50.70;;;;;;221660;1266;22569;-52
2024/01/29 19:46:04;;;;;;;12.50;7.70;;;22.70;50.40;;;;;;222193;1259;22854;-51
2024/01/29 19:51:09;;;;;;;11.20;7.80;;;22.80;50.50;;;;;;221805;1266;22631;-58
2024/01/29 19:56:14;;;;;;;13.10;8.20;;;22.70;50.20;;;;;;222334;1269;24194;-52
2024/01/29 20:01:18;;;;;;;14.40;7.10;;;22.70;50.50;;;;;;222373;1254;22528;-54
2024/01/29 20:06:23;;;;;;;12.70;8.00;;;22.60;50.70;;;;;;222192;1268;25274;-51
2024/01/29 20:11:27;;;;;;;11.80;7.80;;;22.80;49.80;;;;;;222050;1259;22522;-51
2024/01/29 20:16:36;;;;;;;11.60;7.70;;;22.80;49.40;;;;;;222291;1263;22649;-49
2024/01/29 20:21:49;;;;;;;10.20;7.60;;;22.60;49.90;;;;;;222534;1263;22730;-48
2024/01/29 20:26:53;;;;;;;13.30;7.20;;;22.60;49.40;;;;;;222453;1269;24202;-56
2024/01/29 20:31:58;;;;;;;12.60;8.30;;;22.60;49.40;;;;;;222092;1268;24214;-50
2024/01/29 20:37:03;;;;;;;11.00;7.90;;;22.60;49.30;;;;;;222212;1266;22677;-52
2024/01/29 20:42:08;;;;;;;14.90;8.20;;;22.50;50.00;;;;;;222074;1268;25390;-50
2024/01/29 20:47:12;;;;;;;9.70;7.10;;;22.80;49.50;;;;;;221958;1266;23833;-49
2024/01/29 20:52:17;;;;;;;10.20;7.30;;;23.10;48.60;;;;;;222094;1247;24095;-52
2024/01/29 20:57:22;;;;;;;10.10;7.10;;;23.20;48.30;;;;;;222161;1263;23697;-50
2024/01/29 21:02:29;;;;;;;12.30;7.50;;;23.20;48.30;;;;;;223961;1254;24356;-52
2024/01/29 21:07:34;;;;;;;10.90;7.70;;;23.10;48.50;;;;;;222203;1255;22527;-51
2024/01/29 21:12:40;;;;;;;10.90;7.70;;;23.10;48.90;;;;;;222275;1267;24302;-50
2024/01/29 21:17:46;;;;;;;9.30;7.10;;;23.00;48.70;;;;;;222009;1255;23954;-55
2024/01/29 21:22:50;;;;;;;9.90;6.60;;;23.10;48.60;;;;;;221922;1263;24173;-53
2024/01/29 21:27:55;;;;;;;11.50;7.20;;;23.40;49.10;;;;;;221911;1263;25915;-51
2024/01/29 21:32:59;;;;;;;10.50;7.30;;;23.20;52.60;;;;;;221040;1259;26102;-56
2024/01/29 21:38:04;;;;;;;9.70;7.50;;;23.10;52.10;;;;;;221288;1266;22654;-54
2024/01/29 21:43:09;;;;;;;19.30;8.50;;;23.10;51.70;;;;;;221151;1269;22968;-52
2024/01/29 21:48:14;;;;;;;11.10;7.90;;;23.10;51.70;;;;;;221507;1262;23914;-52
2024/01/29 21:53:19;;;;;;;10.10;8.10;;;23.30;51.10;;;;;;222197;1259;22660;-56
2024/01/29 21:58:24;;;;;;;9.60;7.90;;;23.30;50.90;;;;;;221955;1264;22530;-55
2024/01/29 22:03:30;;;;;;;9.20;8.10;;;23.30;51.40;;;;;;222016;1268;24189;-54
2024/01/29 22:08:35;;;;;;;10.70;8.30;;;23.40;50.60;;;;;;222113;1266;24741;-53
2024/01/29 22:13:39;;;;;;;11.80;8.50;;;23.20;50.50;;;;;;221923;1247;24212;-56
2024/01/29 22:18:44;;;;;;;18.00;8.30;;;23.40;49.90;;;;;;221861;1259;25363;-53
2024/01/29 22:23:49;;;;;;;13.70;7.50;;;23.20;53.10;;;;;;222175;1266;23320;-51
2024/01/29 22:28:53;;;;;;;13.50;8.50;;;23.10;52.40;;;;;;221916;1248;24197;-54
2024/01/29 22:33:58;;;;;;;13.00;7.70;;;23.00;52.20;;;;;;221721;1259;22633;-53
2024/01/29 22:39:05;;;;;;;14.30;7.80;;;23.00;52.10;;;;;;221935;1266;22900;-51
2024/01/29 22:44:12;;;;;;;10.90;7.90;;;23.00;52.00;;;;;;222034;1266;24659;-53
2024/01/29 22:49:17;;;;;;;15.10;8.20;;;23.00;51.90;;;;;;222038;1263;22581;-54
2024/01/29 22:54:21;;;;;;;14.30;8.70;;;23.10;51.50;;;;;;222557;1262;24352;-54
2024/01/29 22:59:26;;;;;;;17.70;8.20;;;22.90;51.70;;;;;;222234;1260;26179;-53
2024/01/29 23:04:31;;;;;;;9.80;7.90;;;22.80;52.10;;;;;;220591;1270;24165;-53
2024/01/29 23:09:36;;;;;;;13.70;7.70;;;23.10;51.50;;;;;;220976;1265;22600;-55
2024/01/29 23:14:40;;;;;;;13.10;7.80;;;23.30;50.90;;;;;;220738;1274;22529;-52
2024/01/29 23:19:45;;;;;;;13.00;8.20;;;23.40;51.00;;;;;;221015;1263;22687;-52
2024/01/29 23:24:50;;;;;;;8.30;7.00;;;23.50;50.60;;;;;;221816;1263;25520;-54
2024/01/29 23:29:55;;;;;;;8.90;7.20;;;23.60;50.30;;;;;;222634;1266;25364;-52
2024/01/29 23:34:59;;;;;;;10.30;7.30;;;23.70;50.10;;;;;;221845;1262;25593;-54
2024/01/29 23:40:13;;;;;;;9.80;8.10;;;23.60;49.90;;;;;;225527;1266;25341;-55
2024/01/29 23:45:18;;;;;;;11.10;8.30;;;23.70;49.50;;;;;;222113;1266;22972;-52
2024/01/29 23:50:22;;;;;;;10.60;8.40;;;23.60;49.80;;;;;;222259;1266;24241;-54
2024/01/29 23:55:26;;;;;;;10.90;8.10;;;23.60;49.60;;;;;;221856;1269;22931;-54
